Scottish Airport Reports

Civil airfields updated at H+20 and H+50
RAF airfields updated at H+50 only

EGPD - Aberdeen
Distance from station: NNE 19mi, 31km
Updated: 19/06/2019 05:50
Clear
Clear
 Wind from SE
Wind: SE 2 mph , 4 km/h
Temperature: 10°C
Dew Point: 9°C
Humidity: 94%
Barometer: 1007 hPa
Summary: Clear
Visibility: greater than 7 miles , 10 km
2019/06/19 04:50 EGPD 190450Z 14002KT CAVOK 10/09 Q1007
EGPN - Dundee
Distance from station: SW 41mi, 66km
Updated: 18/06/2019 20:20
NOT Current
Partly cloudy
Partly cloudy
 Wind from W
Wind: W 9 mph , 15 km/h
Temperature: 16°C
Dew Point: 11°C
Humidity: 72%
Barometer: 1009 hPa
Clouds: Partly cloudy
Visibility: 6 miles , 10 km
Cloud details: Partly cloudy 3000 ft
2019/06/18 19:20 EGPN 181920Z 27008KT 9999 SCT030 16/11 Q1009
 
EGQS - RAF Lossiemouth
Distance from station: NNW 63mi, 102km
Updated: 19/06/2019 05:50
Partly cloudy
Partly cloudy
 Wind from S
Wind: S 10 mph , 17 km/h
Temperature: 12°C
Dew Point: 7°C
Humidity: 72%
Barometer: 1006 hPa
Clouds: Partly cloudy
Visibility: 6 miles , 10 km
Cloud details: Few Clouds 4800 ft
Partly cloudy 25000 ft
2019/06/19 04:50 EGQS 190450Z 18009KT 9999 FEW048 SCT250 12/07 Q1006 RMK BLU
EGPE - Inverness
Distance from station: WNW 73mi, 117km
Updated: 19/06/2019 05:50
Few Clouds
Few Clouds
 Wind from calm
Wind: Calm
Temperature: 11°C
Dew Point: 8°C
Humidity: 82%
Barometer: 1006 hPa
Clouds: Few Clouds
Visibility: 6 miles , 10 km
Cloud details: Few Clouds 3400 ft
2019/06/19 04:50 EGPE 190450Z 00000KT 9999 FEW034 11/08 Q1006
 
EGPH - Edinburgh
Distance from station: SSW 77mi, 125km
Updated: 19/06/2019 05:50
Clear
Clear
 Wind from calm
Wind: Calm
Temperature: 7°C
Dew Point: 7°C
Humidity: 100%
Barometer: 1008 hPa
Summary: Clear
Visibility: greater than 7 miles , 10 km
2019/06/19 04:50 EGPH 190450Z 00000KT CAVOK 07/07 Q1008
EGPC - Wick
Distance from station: NNW 107mi, 172km
Updated: 19/06/2019 05:50
Clear
Clear
 Wind from SSW
Wind: SSW 10 mph , 17 km/h
Temperature: 12°C
Dew Point: 9°C
Humidity: 82%
Barometer: 1005 hPa
Clouds: Clear
Visibility: 6 miles , 10 km
2019/06/19 04:50 EGPC 190450Z AUTO 20009KT 9999 NCD 12/09 Q1005
 
EGPF - Glasgow
Distance from station: SW 107mi, 172km
Updated: 19/06/2019 05:50
Shallow fog, Partly cloudy
Shallow fog, Partly cloudy
 Wind from NW
Wind: NW 1 mph , 2 km/h
Temperature: 9°C
Dew Point: 9°C
Humidity: 100%
Barometer: 1008 hPa
Summary: Shallow Fog
Clouds: Partly cloudy
Visibility: 6 miles , 10 km
2019/06/19 04:50 EGPF 190450Z 32001KT 9999 MIFG NSC 09/09 Q1008
EGPK - Prestwick
Distance from station: SW 130mi, 209km
Updated: 19/06/2019 05:50
Few Clouds
Few Clouds
 Wind from ESE
Wind: ESE 3 mph , 6 km/h
Temperature: 8°C
Dew Point: 7°C
Humidity: 93%
Barometer: 1008 hPa
Clouds: Few Clouds
Visibility: 6 miles , 10 km
Cloud details: Few Clouds 4500 ft
2019/06/19 04:50 EGPK 190450Z 11003KT 9999 FEW045 08/07 Q1008
 
EGPA - Kirkwall, Orkney
Distance from station: N 140mi, 225km
Updated: 19/06/2019 05:50
Mostly cloudy
Mostly cloudy
 Wind from S
Wind: S 12 mph , 19 km/h
Temperature: 11°C
Dew Point: 10°C
Humidity: 94%
Barometer: 1005 hPa
Clouds: Mostly cloudy
Visibility: 6 miles , 10 km
Cloud details: Mostly cloudy 4900 ft
2019/06/19 04:50 EGPA 190450Z AUTO 19010KT 9999 BKN049/// 11/10 Q1005
EGPO - Stornoway, Outer Hebrides
Distance from station: WNW 169mi, 273km
Updated: 19/06/2019 05:50
Mostly cloudy
Mostly cloudy
 Wind from SSE
Wind: SSE 10 mph , 17 km/h
Temperature: 10°C
Wind Chill: 8°C
Dew Point: 9°C
Humidity: 94%
Barometer: 1003 hPa
Clouds: Mostly cloudy
Visibility: 6 miles , 10 km
Cloud details: Few Clouds 800 ft
Partly cloudy 1000 ft
Mostly cloudy 4600 ft
2019/06/19 04:50 EGPO 190450Z 16009KT 9999 FEW008 SCT010 BKN046 10/09 Q1003
 
EGPI - Islay, Inner Hebrides
Distance from station: WSW 172mi, 276km
Updated: 19/06/2019 05:50
Overcast
Overcast
 Wind from S
Wind: S 6 mph , 9 km/h
Temperature: 11°C
Dew Point: 10°C
Humidity: 94%
Barometer: 1007 hPa
Clouds: Overcast
Visibility: 6 miles , 10 km
Cloud details: Overcast 4800 ft
2019/06/19 04:50 EGPI 190450Z AUTO 17005KT 130V230 9999 OVC048/// 11/10 Q1007
EGPU - Tiree, Inner Hebrides
Distance from station: W 172mi, 276km
Updated: 19/06/2019 05:50
Few Clouds
Few Clouds
 Wind from SSW
Wind: SSW 15 mph , 24 km/h
Temperature: 11°C
Dew Point: 10°C
Humidity: 94%
Barometer: 1005 hPa
Clouds: Few Clouds
Visibility: 6 miles , 10 km
Cloud details: Few Clouds 400 ft
2019/06/19 04:50 EGPU 190450Z AUTO 20013KT 110V170 9999 FEW004/// 11/10 Q1005 RERA
 
EGPB - Sumburgh, Shetland
Distance from station: NNE 208mi, 332km
Updated: 19/06/2019 05:50
Few Clouds
Few Clouds
 Wind from S
Wind: S 9 mph , 15 km/h
Temperature: 11°C
Dew Point: 10°C
Humidity: 94%
Barometer: 1006 hPa
Clouds: Few Clouds
Visibility: 6 miles , 10 km
Cloud details: Few Clouds 4800 ft
2019/06/19 04:50 EGPB 190450Z AUTO 19008KT 9999 FEW048/// 11/10 Q1006
EGPM - Scatsa, Shetland
Distance from station: NNE 245mi, 392km
Updated: 19/06/2019 05:50
Mostly cloudy
Mostly cloudy
 Wind from S
Wind: S 10 mph , 17 km/h
Temperature: 11°C
Dew Point: 9°C
Humidity: 88%
Barometer: 1006 hPa
Clouds: Mostly cloudy
Visibility: 6 miles , 10 km
Cloud details: Few Clouds 2300 ft
Partly cloudy 3300 ft
Mostly cloudy 4600 ft
2019/06/19 04:50 EGPM 190450Z AUTO 17009KT 9999 FEW023/// SCT033/// BKN046/// 11/09 Q1006
-->